createdAt,value
2023-02-01T00:01:28.156Z,11.03
2023-02-01T00:03:56.551Z,9.30
2023-02-01T00:06:24.976Z,10.20
2023-02-01T00:08:55.277Z,10.43
2023-02-01T00:11:24.430Z,10.50
2023-02-01T00:13:53.169Z,10.63
2023-02-01T00:16:24.905Z,10.23
2023-02-01T00:18:57.807Z,9.97
2023-02-01T00:21:26.490Z,9.97
2023-02-01T00:23:54.880Z,10.20
2023-02-01T00:26:35.210Z,9.83
2023-02-01T00:29:06.306Z,10.03
2023-02-01T00:31:36.101Z,10.47
2023-02-01T00:34:04.804Z,10.37
2023-02-01T00:36:33.405Z,10.77
2023-02-01T00:39:02.114Z,10.70
2023-02-01T00:41:30.555Z,11.00
2023-02-01T00:43:59.313Z,10.90
2023-02-01T00:46:29.453Z,10.67
2023-02-01T00:48:59.433Z,11.40
2023-02-01T00:51:30.713Z,10.97
2023-02-01T00:53:59.360Z,10.57
2023-02-01T00:56:29.535Z,10.93
2023-02-01T00:58:58.390Z,9.63
2023-02-01T01:01:28.944Z,10.47
2023-02-01T01:04:01.333Z,11.07
2023-02-01T01:06:31.447Z,11.20
2023-02-01T01:09:02.152Z,11.13
2023-02-01T01:11:32.596Z,10.53
2023-02-01T01:14:02.702Z,11.30
2023-02-01T01:16:33.149Z,11.20
2023-02-01T01:19:03.842Z,10.93
2023-02-01T01:21:32.672Z,10.93
2023-02-01T01:24:01.170Z,10.97
2023-02-01T01:26:31.678Z,11.13
2023-02-01T01:29:01.361Z,12.03
2023-02-01T01:31:30.190Z,11.73
2023-02-01T01:34:01.023Z,11.77
2023-02-01T01:36:31.981Z,10.67
2023-02-01T01:39:00.528Z,11.30
2023-02-01T01:41:32.859Z,10.90
2023-02-01T01:44:29.340Z,10.97
2023-02-01T01:46:57.791Z,10.50
2023-02-01T01:49:28.624Z,10.40
2023-02-01T01:52:01.313Z,10.70
2023-02-01T01:54:34.588Z,9.63
2023-02-01T01:57:06.553Z,10.30
2023-02-01T01:59:37.588Z,10.90
2023-02-01T02:02:06.479Z,11.37
2023-02-01T02:04:36.067Z,10.20
2023-02-01T02:07:10.474Z,10.57
2023-02-01T02:09:41.241Z,11.20
2023-02-01T02:12:11.754Z,11.03
2023-02-01T02:14:40.593Z,10.33
2023-02-01T02:17:37.301Z,10.43
2023-02-01T02:20:39.043Z,10.40
2023-02-01T02:23:38.894Z,10.63
2023-02-01T02:26:46.461Z,10.40
2023-02-01T02:29:47.845Z,10.30
2023-02-01T02:32:50.397Z,10.30
2023-02-01T02:35:28.960Z,9.77
2023-02-01T02:38:07.707Z,9.70
2023-02-01T02:40:45.130Z,9.33
2023-02-01T02:43:39.943Z,9.73
2023-02-01T02:46:32.408Z,10.50
2023-02-01T02:49:06.833Z,9.93
2023-02-01T02:52:00.508Z,10.47
2023-02-01T02:54:49.883Z,9.67
2023-02-01T02:57:41.910Z,10.50
2023-02-01T03:00:31.799Z,9.77
2023-02-01T03:03:17.924Z,9.83
2023-02-01T03:05:48.698Z,9.47
2023-02-01T03:08:21.046Z,9.77
2023-02-01T03:10:57.460Z,9.87
2023-02-01T03:13:32.693Z,9.53
2023-02-01T03:16:06.811Z,9.50
2023-02-01T03:18:43.663Z,9.87
2023-02-01T03:21:16.296Z,9.37
2023-02-01T03:23:48.985Z,9.33
2023-02-01T03:26:20.932Z,9.47
2023-02-01T03:28:56.205Z,9.57
2023-02-01T03:31:25.445Z,9.87
2023-02-01T03:33:54.213Z,9.93
2023-02-01T03:36:28.952Z,9.80
2023-02-01T03:39:05.645Z,10.20
2023-02-01T03:41:41.512Z,9.37
2023-02-01T03:44:15.679Z,9.53
2023-02-01T03:46:50.911Z,8.60
2023-02-01T03:49:25.032Z,9.77
2023-02-01T03:51:54.562Z,9.33
2023-02-01T03:54:24.956Z,9.17
2023-02-01T03:56:57.579Z,9.30
2023-02-01T03:59:26.715Z,9.13
2023-02-01T04:01:55.246Z,9.70
2023-02-01T04:04:23.770Z,9.33
2023-02-01T04:06:55.272Z,9.40
2023-02-01T04:09:25.130Z,9.60
2023-02-01T04:11:53.445Z,9.40
2023-02-01T04:14:21.847Z,9.57
2023-02-01T04:16:50.155Z,9.47
2023-02-01T04:19:18.717Z,9.50
2023-02-01T04:21:47.194Z,9.23
2023-02-01T04:24:15.583Z,9.13
2023-02-01T04:26:45.355Z,9.20
2023-02-01T04:29:13.914Z,8.80
2023-02-01T04:31:42.442Z,9.20
2023-02-01T04:34:11.526Z,8.83
2023-02-01T04:36:39.873Z,8.87
2023-02-01T04:39:08.375Z,8.87
2023-02-01T04:41:36.763Z,8.87
2023-02-01T04:44:06.534Z,9.03
2023-02-01T04:46:34.954Z,8.77
2023-02-01T04:49:03.296Z,8.87
2023-02-01T04:51:31.888Z,8.33
2023-02-01T04:54:00.292Z,9.40
2023-02-01T04:56:28.712Z,9.60
2023-02-01T04:58:57.215Z,9.37
2023-02-01T05:01:26.891Z,9.00
2023-02-01T05:03:55.392Z,9.43
2023-02-01T05:06:23.834Z,8.97
2023-02-01T05:08:52.267Z,8.80
2023-02-01T05:11:38.065Z,9.17
2023-02-01T05:14:06.376Z,9.00
2023-02-01T05:16:36.298Z,9.77
2023-02-01T05:19:04.716Z,9.17
2023-02-01T05:21:33.079Z,9.23
2023-02-01T05:24:14.202Z,9.43
2023-02-01T05:26:43.144Z,9.80
2023-02-01T05:29:12.889Z,9.67
2023-02-01T05:31:42.731Z,9.77
2023-02-01T05:34:11.218Z,9.90
2023-02-01T05:36:39.680Z,9.70
2023-02-01T05:39:08.107Z,8.87
2023-02-01T05:41:36.494Z,9.13
2023-02-01T05:44:05.047Z,9.47
2023-02-01T05:46:33.654Z,9.03
2023-02-01T05:49:03.406Z,9.57
2023-02-01T05:51:31.897Z,9.13
2023-02-01T05:54:00.241Z,9.43
2023-02-01T05:56:28.706Z,8.93
2023-02-01T05:58:57.045Z,9.27
2023-02-01T06:01:25.455Z,9.57
2023-02-01T06:03:53.723Z,9.30
2023-02-01T06:06:23.401Z,9.43
2023-02-01T06:08:51.646Z,9.47
2023-02-01T06:11:31.796Z,9.57
2023-02-01T06:14:00.812Z,9.77
2023-02-01T06:16:29.336Z,9.77
2023-02-01T06:18:57.766Z,10.17
2023-02-01T06:21:27.592Z,9.47
2023-02-01T06:23:58.645Z,9.93
2023-02-01T06:26:29.751Z,8.70
2023-02-01T06:28:58.598Z,9.37
2023-02-01T06:31:27.498Z,9.60
2023-02-01T06:33:56.073Z,8.77
2023-02-01T06:36:24.608Z,8.67
2023-02-01T06:38:54.566Z,9.30
2023-02-01T06:41:22.830Z,9.00
2023-02-01T06:43:51.323Z,8.47
2023-02-01T06:46:19.975Z,8.90
2023-02-01T06:48:48.638Z,9.40
2023-02-01T06:51:25.092Z,9.57
2023-02-01T06:53:54.841Z,8.07
2023-02-01T06:56:23.309Z,8.90
2023-02-01T06:58:52.116Z,8.70
2023-02-01T07:01:21.041Z,8.53
2023-02-01T07:03:51.945Z,9.10
2023-02-01T07:06:21.642Z,8.57
2023-02-01T07:08:50.572Z,9.00
2023-02-01T07:11:21.296Z,7.80
2023-02-01T07:13:49.834Z,7.57
2023-02-01T07:16:20.741Z,8.50
2023-02-01T07:18:49.608Z,7.90
2023-02-01T07:21:18.051Z,8.10
2023-02-01T07:23:46.776Z,8.50
2023-02-01T07:26:17.678Z,9.70
2023-02-01T07:28:47.863Z,9.30
2023-02-01T07:31:19.356Z,9.13
2023-02-01T07:33:48.102Z,8.37
2023-02-01T07:36:18.573Z,8.70
2023-02-01T07:38:49.027Z,8.20
2023-02-01T07:41:18.613Z,7.27
2023-02-01T07:43:48.434Z,7.70
2023-02-01T07:46:17.676Z,7.13
2023-02-01T07:48:46.074Z,8.17
2023-02-01T07:51:16.234Z,8.00
2023-02-01T07:53:47.055Z,7.60
2023-02-01T07:56:17.242Z,8.10
2023-02-01T07:58:50.228Z,7.87
2023-02-01T08:01:22.094Z,8.80
2023-02-01T08:03:51.285Z,7.93
2023-02-01T08:06:21.095Z,8.20
2023-02-01T08:08:49.670Z,7.37
2023-02-01T08:11:19.324Z,7.90
2023-02-01T08:13:49.704Z,7.93
2023-02-01T08:16:20.225Z,7.70
2023-02-01T08:18:48.777Z,7.60
2023-02-01T08:21:19.147Z,8.27
2023-02-01T08:23:48.003Z,7.97
2023-02-01T08:26:19.376Z,8.50
2023-02-01T08:28:51.173Z,8.57
2023-02-01T08:31:22.406Z,8.43
2023-02-01T08:33:52.249Z,8.87
2023-02-01T08:36:21.122Z,9.33
2023-02-01T08:38:49.561Z,8.73
2023-02-01T08:41:21.079Z,9.50
2023-02-01T08:43:50.847Z,9.10
2023-02-01T08:46:19.402Z,9.20
2023-02-01T08:48:49.145Z,9.13
2023-02-01T08:51:19.901Z,9.20
2023-02-01T08:53:48.907Z,9.83
2023-02-01T08:56:18.923Z,9.53
2023-02-01T08:58:47.855Z,9.80
2023-02-01T09:01:19.193Z,9.43
2023-02-01T09:06:33.571Z,10.13
2023-02-01T09:09:01.929Z,10.47
2023-02-01T09:11:30.491Z,9.80
2023-02-01T09:13:59.051Z,8.93
2023-02-01T09:16:28.933Z,8.77
2023-02-01T09:19:23.877Z,10.40
2023-02-01T09:21:45.672Z,9.10
2023-02-01T09:24:14.902Z,9.23
2023-02-01T09:26:43.338Z,9.20
2023-02-01T09:29:14.819Z,9.40
2023-02-01T09:31:57.435Z,9.33
2023-02-01T09:34:30.207Z,9.33
2023-02-01T09:36:58.882Z,9.13
2023-02-01T09:39:27.378Z,8.27
2023-02-01T09:42:04.544Z,8.50
2023-02-01T09:44:48.142Z,8.77
2023-02-01T09:47:21.298Z,8.30
2023-02-01T09:49:56.443Z,7.93
2023-02-01T09:52:29.735Z,8.80
2023-02-01T09:55:03.831Z,8.90
2023-02-01T09:57:43.783Z,8.83
2023-02-01T10:00:23.102Z,9.33
2023-02-01T10:02:55.614Z,7.63
2023-02-01T10:05:43.716Z,9.63
2023-02-01T10:08:20.054Z,8.40
2023-02-01T10:10:50.305Z,8.50
2023-02-01T10:13:36.022Z,9.10
2023-02-01T10:16:31.503Z,8.97
2023-02-01T10:19:26.095Z,8.93
2023-02-01T10:22:00.328Z,8.67
2023-02-01T10:24:41.486Z,8.30
2023-02-01T10:27:19.022Z,8.30
2023-02-01T10:29:50.465Z,9.10
2023-02-01T10:32:21.954Z,8.50
2023-02-01T10:34:57.781Z,9.00
2023-02-01T10:37:30.955Z,9.03
2023-02-01T10:40:02.931Z,9.40
2023-02-01T10:42:33.213Z,10.00
2023-02-01T10:45:06.007Z,9.43
2023-02-01T10:47:34.497Z,9.20
2023-02-01T10:50:18.053Z,8.90
2023-02-01T10:52:50.624Z,8.27
2023-02-01T10:55:31.117Z,8.43
2023-02-01T10:58:01.335Z,8.20
2023-02-01T11:00:30.221Z,8.60
2023-02-01T11:02:58.811Z,9.33
2023-02-01T11:05:28.966Z,8.80
2023-02-01T11:07:57.996Z,9.63
2023-02-01T11:10:38.798Z,10.20
2023-02-01T11:13:07.790Z,10.30
2023-02-01T11:15:36.176Z,10.57
2023-02-01T11:18:18.767Z,10.30
2023-02-01T11:20:52.930Z,9.83
2023-02-01T11:23:24.626Z,10.03
2023-02-01T11:25:55.795Z,10.50
2023-02-01T11:28:27.337Z,10.17
2023-02-01T11:30:58.680Z,10.93
2023-02-01T11:33:32.215Z,10.40
2023-02-01T11:36:03.376Z,10.30
2023-02-01T11:38:34.244Z,10.37
2023-02-01T11:41:15.611Z,10.00
2023-02-01T11:43:55.194Z,10.23
2023-02-01T11:46:28.044Z,11.00
2023-02-01T11:48:58.364Z,9.97
2023-02-01T11:51:45.257Z,10.60
2023-02-01T11:54:39.048Z,10.63
2023-02-01T11:57:22.415Z,10.80
2023-02-01T12:00:11.626Z,10.77
2023-02-01T12:03:13.749Z,9.90
2023-02-01T12:05:52.889Z,11.30
2023-02-01T12:08:52.490Z,11.60
2023-02-01T12:11:36.427Z,11.77
2023-02-01T12:14:29.008Z,11.37
2023-02-01T12:17:30.456Z,12.37
2023-02-01T12:20:13.008Z,11.27
2023-02-01T12:22:54.485Z,11.53
2023-02-01T12:25:46.513Z,12.50
2023-02-01T12:28:38.339Z,12.37
2023-02-01T12:31:34.177Z,12.47
2023-02-01T12:34:33.825Z,13.07
2023-02-01T12:37:11.034Z,12.03
2023-02-01T12:39:43.061Z,10.77
2023-02-01T12:42:18.608Z,9.93
2023-02-01T12:44:53.023Z,9.27
2023-02-01T12:47:26.896Z,9.50
2023-02-01T12:49:59.833Z,9.60
2023-02-01T12:52:36.325Z,9.30
2023-02-01T12:55:12.696Z,8.60
2023-02-01T12:57:45.629Z,8.90
2023-02-01T13:00:23.689Z,9.20
2023-02-01T13:02:59.233Z,9.67
2023-02-01T13:05:36.134Z,10.77
2023-02-01T13:08:09.877Z,9.63
2023-02-01T13:10:43.223Z,9.73
2023-02-01T13:13:19.621Z,10.17
2023-02-01T13:15:55.993Z,10.17
2023-02-01T13:18:28.269Z,9.90
2023-02-01T13:21:10.081Z,9.50
2023-02-01T13:23:41.707Z,9.73
2023-02-01T13:26:10.260Z,9.60
2023-02-01T13:28:46.478Z,9.50
2023-02-01T13:31:49.147Z,9.40
2023-02-01T13:34:55.268Z,10.00
2023-02-01T13:37:35.350Z,10.37
2023-02-01T13:40:26.125Z,9.73
2023-02-01T13:42:57.683Z,9.93
2023-02-01T13:45:31.044Z,8.80
2023-02-01T13:48:02.787Z,7.97
2023-02-01T13:50:35.112Z,8.03
2023-02-01T13:53:07.538Z,8.20
2023-02-01T13:55:38.443Z,8.70
2023-02-01T13:58:22.744Z,8.13
2023-02-01T14:00:53.193Z,8.60
2023-02-01T14:03:23.646Z,7.97
2023-02-01T14:06:19.222Z,8.00
2023-02-01T14:09:03.932Z,8.07
2023-02-01T14:11:42.449Z,9.23
2023-02-01T14:14:43.621Z,9.40
2023-02-01T14:17:43.613Z,9.37
2023-02-01T14:20:41.742Z,9.77
2023-02-01T14:23:16.608Z,9.20
2023-02-01T14:25:46.531Z,9.23
2023-02-01T14:28:23.799Z,9.70
2023-02-01T14:30:52.521Z,9.50
2023-02-01T14:33:25.000Z,12.27
2023-02-01T14:36:17.679Z,9.70
2023-02-01T14:38:51.972Z,9.13
2023-02-01T14:41:33.984Z,9.27
2023-02-01T14:44:34.230Z,9.47
2023-02-01T14:47:31.969Z,8.83
2023-02-01T14:50:34.786Z,9.10
2023-02-01T14:53:26.811Z,8.07
2023-02-01T14:56:02.565Z,9.70
2023-02-01T14:58:38.955Z,9.97
2023-02-01T15:01:17.054Z,8.70
2023-02-01T15:03:58.171Z,9.23
2023-02-01T15:06:33.003Z,9.37
2023-02-01T15:09:04.733Z,9.37
2023-02-01T15:11:33.183Z,9.00
2023-02-01T15:14:02.074Z,8.47
2023-02-01T15:16:30.458Z,8.23
2023-02-01T15:19:13.576Z,9.63
2023-02-01T15:21:48.819Z,9.17
2023-02-01T15:24:22.369Z,8.60
2023-02-01T15:26:51.133Z,9.50
2023-02-01T15:29:20.304Z,8.70
2023-02-01T15:31:50.770Z,8.90
2023-02-01T15:34:20.019Z,8.67
2023-02-01T15:37:02.564Z,8.30
2023-02-01T15:39:33.546Z,8.93
2023-02-01T15:42:11.579Z,8.90
2023-02-01T15:44:43.687Z,8.70
2023-02-01T15:47:17.793Z,8.57
2023-02-01T15:49:49.149Z,8.40
2023-02-01T15:52:29.242Z,8.67
2023-02-01T15:55:00.415Z,8.40
2023-02-01T15:57:32.695Z,8.20
2023-02-01T16:00:04.435Z,8.87
2023-02-01T16:02:45.972Z,8.10
2023-02-01T16:05:33.333Z,8.67
2023-02-01T16:08:06.054Z,8.67
2023-02-01T16:10:40.575Z,8.10
2023-02-01T16:13:09.006Z,8.07
2023-02-01T16:15:37.734Z,7.63
2023-02-01T16:18:06.319Z,8.27
2023-02-01T16:20:36.264Z,8.20
2023-02-01T16:23:06.115Z,8.30
2023-02-01T16:25:35.050Z,8.13
2023-02-01T16:28:03.364Z,8.27
2023-02-01T16:30:31.709Z,7.97
2023-02-01T16:33:03.597Z,8.37
2023-02-01T16:35:36.881Z,9.07
2023-02-01T16:38:09.766Z,8.30
2023-02-01T16:40:38.513Z,8.80
2023-02-01T16:43:13.984Z,8.63
2023-02-01T16:45:43.590Z,8.70
2023-02-01T16:48:21.347Z,8.93
2023-02-01T16:50:52.082Z,8.27
2023-02-01T16:53:22.918Z,8.87
2023-02-01T16:55:53.470Z,8.50
2023-02-01T16:58:22.833Z,7.83
2023-02-01T17:00:53.337Z,8.53
2023-02-01T17:03:22.886Z,8.57
2023-02-01T17:05:54.013Z,8.83
2023-02-01T17:08:35.360Z,8.93
2023-02-01T17:11:04.438Z,8.83
2023-02-01T17:13:33.524Z,9.50
2023-02-01T17:16:04.830Z,9.20
2023-02-01T17:18:36.377Z,9.47
2023-02-01T17:21:07.765Z,9.27
2023-02-01T17:23:38.107Z,9.40
2023-02-01T17:26:06.636Z,9.53
2023-02-01T17:28:35.081Z,8.77
2023-02-01T17:31:04.831Z,8.97
2023-02-01T17:33:36.685Z,8.37
2023-02-01T17:36:07.021Z,8.20
2023-02-01T17:38:37.164Z,8.80
2023-02-01T17:41:05.984Z,8.33
2023-02-01T17:43:34.792Z,7.60
2023-02-01T17:46:07.082Z,7.27
2023-02-01T17:48:35.621Z,7.60
2023-02-01T17:51:04.064Z,7.73
2023-02-01T17:53:34.124Z,7.77
2023-02-01T17:56:03.838Z,7.30
2023-02-01T17:58:33.874Z,8.33
2023-02-01T18:01:02.393Z,7.63
2023-02-01T18:03:33.128Z,7.63
2023-02-01T18:06:01.994Z,9.30
2023-02-01T18:08:33.456Z,8.30
2023-02-01T18:11:04.218Z,8.33
2023-02-01T18:13:33.508Z,7.80
2023-02-01T18:16:02.229Z,7.80
2023-02-01T18:18:33.464Z,7.97
2023-02-01T18:21:02.034Z,7.53
2023-02-01T18:23:30.840Z,8.10
2023-02-01T18:25:59.210Z,7.87
2023-02-01T18:28:28.836Z,8.33
2023-02-01T18:30:57.419Z,7.53
2023-02-01T18:33:25.988Z,8.50
2023-02-01T18:35:54.342Z,7.63
2023-02-01T18:38:22.704Z,7.50
2023-02-01T18:40:53.307Z,7.50
2023-02-01T18:43:22.144Z,7.30
2023-02-01T18:45:52.177Z,7.33
2023-02-01T18:48:22.361Z,8.43
2023-02-01T18:50:57.294Z,8.47
2023-02-01T18:53:27.620Z,8.43
2023-02-01T18:55:56.922Z,9.10
2023-02-01T18:58:26.941Z,8.33
2023-02-01T19:00:58.422Z,8.50
2023-02-01T19:03:27.407Z,7.80
2023-02-01T19:05:57.453Z,8.10
2023-02-01T19:08:26.445Z,9.07
2023-02-01T19:10:55.412Z,8.53
2023-02-01T19:13:29.242Z,8.97
2023-02-01T19:16:00.296Z,8.70
2023-02-01T19:18:28.795Z,7.90
2023-02-01T19:21:03.627Z,8.20
2023-02-01T19:23:32.026Z,8.80
2023-02-01T19:26:00.547Z,9.07
2023-02-01T19:28:29.078Z,8.43
2023-02-01T19:31:04.774Z,8.00
2023-02-01T19:33:33.755Z,8.43
2023-02-01T19:36:05.963Z,9.27
2023-02-01T19:41:17.338Z,8.30
2023-02-01T19:43:45.814Z,7.40
2023-02-01T19:46:15.588Z,7.90
2023-02-01T19:48:44.136Z,7.30
2023-02-01T19:51:13.446Z,8.03
2023-02-01T19:53:41.841Z,7.87
2023-02-01T19:56:10.266Z,6.93
2023-02-01T19:58:38.685Z,8.37
2023-02-01T20:01:07.207Z,7.80
2023-02-01T20:03:36.887Z,7.90
2023-02-01T20:06:07.478Z,7.43
2023-02-01T20:08:35.896Z,8.10
2023-02-01T20:11:07.333Z,8.23
2023-02-01T20:13:38.800Z,7.63
2023-02-01T20:16:07.603Z,7.70
2023-02-01T20:18:39.022Z,8.17
2023-02-01T20:21:07.460Z,8.00
2023-02-01T20:23:36.784Z,7.97
2023-02-01T20:26:07.358Z,7.37
2023-02-01T20:28:36.391Z,8.50
2023-02-01T20:31:04.845Z,8.03
2023-02-01T20:33:34.062Z,8.27
2023-02-01T20:36:04.059Z,8.60
2023-02-01T20:38:32.435Z,7.60
2023-02-01T20:41:05.174Z,8.00
2023-02-01T20:43:33.615Z,8.27
2023-02-01T20:46:02.916Z,8.10
2023-02-01T20:48:32.734Z,8.23
2023-02-01T20:51:01.461Z,7.97
2023-02-01T20:53:31.608Z,8.93
2023-02-01T20:56:00.427Z,9.10
2023-02-01T20:58:29.092Z,8.23
2023-02-01T21:00:57.717Z,8.10
2023-02-01T21:03:26.214Z,7.87
2023-02-01T21:05:56.445Z,8.20
2023-02-01T21:08:26.146Z,7.93
2023-02-01T21:11:00.671Z,8.80
2023-02-01T21:13:31.548Z,9.20
2023-02-01T21:16:00.092Z,8.20
2023-02-01T21:18:28.634Z,8.70
2023-02-01T21:20:58.244Z,8.07
2023-02-01T21:23:26.652Z,8.63
2023-02-01T21:25:54.941Z,8.57
2023-02-01T21:28:24.914Z,8.30
2023-02-01T21:30:53.423Z,8.53
2023-02-01T21:33:21.796Z,8.60
2023-02-01T21:35:51.685Z,8.70
2023-02-01T21:38:20.462Z,8.30
2023-02-01T21:41:11.436Z,8.00
2023-02-01T21:43:41.346Z,9.00
2023-02-01T21:46:09.826Z,8.83
2023-02-01T21:49:04.736Z,8.20
2023-02-01T21:51:30.313Z,8.73
2023-02-01T21:53:58.890Z,8.50
2023-02-01T21:56:27.254Z,8.63
2023-02-01T21:58:57.362Z,8.63
2023-02-01T22:01:26.337Z,8.37
2023-02-01T22:03:54.907Z,8.73
2023-02-01T22:06:27.601Z,10.00
2023-02-01T22:08:56.260Z,9.37
2023-02-01T22:11:25.244Z,10.07
2023-02-01T22:13:53.801Z,10.80
2023-02-01T22:16:23.868Z,10.57
2023-02-01T22:18:53.424Z,10.10
2023-02-01T22:21:24.101Z,8.60
2023-02-01T22:23:54.286Z,9.47
2023-02-01T22:26:24.377Z,9.77
2023-02-01T22:28:53.102Z,9.70
2023-02-01T22:31:23.834Z,11.80
2023-02-01T22:33:52.370Z,9.80
2023-02-01T22:36:21.471Z,9.00
2023-02-01T22:38:49.892Z,9.87
2023-02-01T22:41:18.814Z,10.00
2023-02-01T22:43:48.923Z,8.83
2023-02-01T22:46:20.115Z,9.90
2023-02-01T22:48:50.250Z,9.63
2023-02-01T22:51:22.474Z,8.90
2023-02-01T22:53:57.365Z,9.63
2023-02-01T22:56:26.954Z,8.77
2023-02-01T22:58:56.671Z,10.07
2023-02-01T23:01:25.602Z,8.70
2023-02-01T23:03:58.344Z,9.30
2023-02-01T23:06:26.988Z,9.27
2023-02-01T23:08:59.566Z,10.47
2023-02-01T23:11:28.993Z,9.57
2023-02-01T23:13:57.733Z,9.70
2023-02-01T23:16:26.126Z,9.87
2023-02-01T23:18:56.730Z,8.90
2023-02-01T23:21:25.169Z,9.50
2023-02-01T23:23:55.217Z,9.10
2023-02-01T23:26:25.024Z,9.07
2023-02-01T23:28:55.278Z,9.30
2023-02-01T23:31:25.471Z,7.60
2023-02-01T23:33:56.965Z,7.47
2023-02-01T23:36:27.174Z,8.50
2023-02-01T23:38:55.844Z,8.60
2023-02-01T23:41:27.553Z,8.03
2023-02-01T23:43:58.682Z,8.27
2023-02-01T23:46:29.383Z,7.70
2023-02-01T23:49:00.093Z,8.13
2023-02-01T23:51:29.315Z,7.87
2023-02-01T23:53:57.824Z,8.40
2023-02-01T23:56:28.144Z,8.20
2023-02-01T23:58:57.038Z,8.00
